createdAt,value
2022-09-25T00:01:28.551Z,4.97
2022-09-25T00:03:58.411Z,5.03
2022-09-25T00:06:28.042Z,5.15
2022-09-25T00:08:56.836Z,4.97
2022-09-25T00:11:27.537Z,4.70
2022-09-25T00:13:56.541Z,4.80
2022-09-25T00:16:26.505Z,4.35
2022-09-25T00:19:12.729Z,4.72
2022-09-25T00:21:42.556Z,4.35
2022-09-25T00:24:12.500Z,4.97
2022-09-25T00:26:41.943Z,4.47
2022-09-25T00:29:11.556Z,4.50
2022-09-25T00:31:39.973Z,4.38
2022-09-25T00:34:08.463Z,4.28
2022-09-25T00:36:37.364Z,4.15
2022-09-25T00:39:07.445Z,4.40
2022-09-25T00:41:36.161Z,4.10
2022-09-25T00:44:05.787Z,4.43
2022-09-25T00:46:36.652Z,3.88
2022-09-25T00:49:06.347Z,3.33
2022-09-25T00:51:38.734Z,3.65
2022-09-25T00:54:10.141Z,3.70
2022-09-25T00:56:39.792Z,3.55
2022-09-25T00:59:11.352Z,3.83
2022-09-25T01:01:39.823Z,3.70
2022-09-25T01:04:08.376Z,3.78
2022-09-25T01:06:37.874Z,3.40
2022-09-25T01:09:06.798Z,3.30
2022-09-25T01:11:36.813Z,3.40
2022-09-25T01:14:06.718Z,3.50
2022-09-25T01:16:39.456Z,3.08
2022-09-25T01:19:14.071Z,3.20
2022-09-25T01:21:45.366Z,3.17
2022-09-25T01:24:32.574Z,2.90
2022-09-25T01:27:18.301Z,3.00
2022-09-25T01:29:50.972Z,3.00
2022-09-25T01:32:22.344Z,3.47
2022-09-25T01:34:53.273Z,3.28
2022-09-25T01:37:26.001Z,3.05
2022-09-25T01:39:58.947Z,2.78
2022-09-25T01:42:29.479Z,2.83
2022-09-25T01:45:00.861Z,3.17
2022-09-25T01:47:30.526Z,3.17
2022-09-25T01:50:00.996Z,2.97
2022-09-25T01:52:34.078Z,3.30
2022-09-25T01:55:07.004Z,3.20
2022-09-25T01:57:37.092Z,2.90
2022-09-25T02:00:10.117Z,3.47
2022-09-25T02:02:41.835Z,3.35
2022-09-25T02:05:13.448Z,3.42
2022-09-25T02:07:43.897Z,3.17
2022-09-25T02:10:14.319Z,3.20
2022-09-25T02:12:45.103Z,3.05
2022-09-25T02:15:16.731Z,3.08
2022-09-25T02:18:04.632Z,3.17
2022-09-25T02:20:34.794Z,3.00
2022-09-25T02:23:07.340Z,3.42
2022-09-25T02:25:38.602Z,3.30
2022-09-25T02:28:07.049Z,3.10
2022-09-25T02:30:36.992Z,3.45
2022-09-25T02:33:05.544Z,3.20
2022-09-25T02:35:34.585Z,3.20
2022-09-25T02:38:03.017Z,3.40
2022-09-25T02:40:36.209Z,3.10
2022-09-25T02:43:10.776Z,3.63
2022-09-25T02:45:49.316Z,3.92
2022-09-25T02:48:20.465Z,3.38
2022-09-25T02:50:53.730Z,3.30
2022-09-25T02:53:25.965Z,3.33
2022-09-25T02:55:58.646Z,3.63
2022-09-25T02:58:29.335Z,3.67
2022-09-25T03:00:59.454Z,3.65
2022-09-25T03:03:28.498Z,4.07
2022-09-25T03:05:58.002Z,4.60
2022-09-25T03:08:41.803Z,4.22
2022-09-25T03:11:12.401Z,4.40
2022-09-25T03:13:41.096Z,3.78
2022-09-25T03:16:14.357Z,4.13
2022-09-25T03:18:42.781Z,4.50
2022-09-25T03:21:11.165Z,3.45
2022-09-25T03:23:39.584Z,3.33
2022-09-25T03:26:08.125Z,3.70
2022-09-25T03:28:36.637Z,3.80
2022-09-25T03:31:06.413Z,3.60
2022-09-25T03:33:38.306Z,3.90
2022-09-25T03:36:08.190Z,3.38
2022-09-25T03:38:36.584Z,3.30
2022-09-25T03:41:08.811Z,3.45
2022-09-25T03:43:37.634Z,3.47
2022-09-25T03:46:06.311Z,3.20
2022-09-25T03:48:34.983Z,3.42
2022-09-25T03:51:04.820Z,3.13
2022-09-25T03:53:33.553Z,3.10
2022-09-25T03:56:02.065Z,3.08
2022-09-25T03:58:30.718Z,3.28
2022-09-25T04:00:59.657Z,2.63
2022-09-25T04:03:29.034Z,3.15
2022-09-25T04:05:58.056Z,3.00
2022-09-25T04:08:28.777Z,3.10
2022-09-25T04:10:59.461Z,3.00
2022-09-25T04:13:30.091Z,2.90
2022-09-25T04:15:59.020Z,2.70
2022-09-25T04:18:28.192Z,2.97
2022-09-25T04:20:56.751Z,3.15
2022-09-25T04:23:25.191Z,3.15
2022-09-25T04:25:55.495Z,2.97
2022-09-25T04:28:24.288Z,3.50
2022-09-25T04:30:53.029Z,3.67
2022-09-25T04:33:39.166Z,3.53
2022-09-25T04:36:08.157Z,2.70
2022-09-25T04:38:36.694Z,3.22
2022-09-25T04:41:08.148Z,2.75
2022-09-25T04:43:36.581Z,3.33
2022-09-25T04:46:05.794Z,3.28
2022-09-25T04:48:34.565Z,3.50
2022-09-25T04:51:02.995Z,3.30
2022-09-25T04:53:32.062Z,2.97
2022-09-25T04:56:02.588Z,2.92
2022-09-25T04:58:32.364Z,3.22
2022-09-25T05:01:03.996Z,3.67
2022-09-25T05:03:32.515Z,3.45
2022-09-25T05:06:01.065Z,3.40
2022-09-25T05:08:29.844Z,3.53
2022-09-25T05:10:58.259Z,3.58
2022-09-25T05:13:28.142Z,3.45
2022-09-25T05:15:58.119Z,3.63
2022-09-25T05:18:26.972Z,3.47
2022-09-25T05:20:55.970Z,3.40
2022-09-25T05:23:24.966Z,4.05
2022-09-25T05:25:53.966Z,4.40
2022-09-25T05:28:23.647Z,4.28
2022-09-25T05:30:52.202Z,4.22
2022-09-25T05:33:22.041Z,4.25
2022-09-25T05:35:50.461Z,4.28
2022-09-25T05:38:18.930Z,4.30
2022-09-25T05:40:47.702Z,4.32
2022-09-25T05:43:16.186Z,3.97
2022-09-25T05:45:44.682Z,3.92
2022-09-25T05:48:13.200Z,4.55
2022-09-25T05:50:42.979Z,3.92
2022-09-25T05:53:11.374Z,3.92
2022-09-25T05:55:39.792Z,4.15
2022-09-25T05:58:08.193Z,4.03
2022-09-25T06:00:36.583Z,4.28
2022-09-25T06:03:05.066Z,3.83
2022-09-25T06:05:33.484Z,3.35
2022-09-25T06:08:03.583Z,3.90
2022-09-25T06:10:32.054Z,4.07
2022-09-25T06:13:01.119Z,3.60
2022-09-25T06:15:30.133Z,3.85
2022-09-25T06:17:58.745Z,4.00
2022-09-25T06:20:27.228Z,4.15
2022-09-25T06:22:56.003Z,3.83
2022-09-25T06:25:26.765Z,3.90
2022-09-25T06:27:55.380Z,3.90
2022-09-25T06:30:27.368Z,3.92
2022-09-25T06:32:58.364Z,3.55
2022-09-25T06:35:26.876Z,4.18
2022-09-25T06:37:58.692Z,3.75
2022-09-25T06:40:29.358Z,3.47
2022-09-25T06:42:58.179Z,3.95
2022-09-25T06:45:26.875Z,3.90
2022-09-25T06:47:57.818Z,4.05
2022-09-25T06:50:31.907Z,3.88
2022-09-25T06:53:00.636Z,4.00
2022-09-25T06:55:32.374Z,4.18
2022-09-25T06:58:00.925Z,4.13
2022-09-25T07:00:29.409Z,4.20
2022-09-25T07:03:16.955Z,3.75
2022-09-25T07:05:45.520Z,3.80
2022-09-25T07:08:16.219Z,4.03
2022-09-25T07:10:50.442Z,4.22
2022-09-25T07:13:19.226Z,3.95
2022-09-25T07:15:52.889Z,3.80
2022-09-25T07:18:21.506Z,4.10
2022-09-25T07:20:50.131Z,3.80
2022-09-25T07:23:18.693Z,3.95
2022-09-25T07:25:47.377Z,4.10
2022-09-25T07:28:19.124Z,3.70
2022-09-25T07:30:48.257Z,3.13
2022-09-25T07:33:17.403Z,4.00
2022-09-25T07:35:45.928Z,3.47
2022-09-25T07:38:14.318Z,3.67
2022-09-25T07:40:42.775Z,4.40
2022-09-25T07:43:11.277Z,4.25
2022-09-25T07:45:41.495Z,4.22
2022-09-25T07:48:10.862Z,4.32
2022-09-25T07:50:39.244Z,4.75
2022-09-25T07:53:07.805Z,4.57
2022-09-25T07:55:36.209Z,5.30
2022-09-25T07:58:04.649Z,5.45
2022-09-25T08:00:33.195Z,4.88
2022-09-25T08:03:03.004Z,4.47
2022-09-25T08:05:31.418Z,4.13
2022-09-25T08:07:59.848Z,3.60
2022-09-25T08:10:28.273Z,2.85
2022-09-25T08:12:56.718Z,2.83
2022-09-25T08:15:25.497Z,2.83
2022-09-25T08:17:53.977Z,2.75
2022-09-25T08:20:23.747Z,2.67
2022-09-25T08:22:57.364Z,2.53
2022-09-25T08:25:25.800Z,2.85
2022-09-25T08:27:54.203Z,2.90
2022-09-25T08:30:22.647Z,3.22
2022-09-25T08:32:52.304Z,2.60
2022-09-25T08:35:20.725Z,2.60
2022-09-25T08:37:50.489Z,2.10
2022-09-25T08:40:20.516Z,2.35
2022-09-25T08:42:50.224Z,2.40
2022-09-25T08:45:44.190Z,2.20
2022-09-25T08:48:36.238Z,2.40
2022-09-25T08:51:06.531Z,3.35
2022-09-25T08:53:36.838Z,3.90
2022-09-25T08:56:17.448Z,3.03
2022-09-25T08:58:47.752Z,2.50
2022-09-25T09:01:17.325Z,2.25
2022-09-25T09:03:48.136Z,2.20
2022-09-25T09:06:17.312Z,1.70
2022-09-25T09:08:49.602Z,2.10
2022-09-25T09:11:19.990Z,1.80
2022-09-25T09:13:51.531Z,2.00
2022-09-25T09:16:23.368Z,1.90
2022-09-25T09:18:51.987Z,1.70
2022-09-25T09:21:22.685Z,1.80
2022-09-25T09:23:57.000Z,1.80
2022-09-25T09:26:28.042Z,1.83
2022-09-25T09:29:08.197Z,1.38
2022-09-25T09:31:41.517Z,1.50
2022-09-25T09:34:53.002Z,1.50
2022-09-25T09:37:21.554Z,1.10
2022-09-25T09:40:03.382Z,1.55
2022-09-25T09:42:44.145Z,1.40
2022-09-25T09:45:17.356Z,1.48
2022-09-25T09:47:48.346Z,1.40
2022-09-25T09:50:26.452Z,1.40
2022-09-25T09:52:57.470Z,1.42
2022-09-25T09:55:31.023Z,1.38
2022-09-25T09:58:08.676Z,1.30
2022-09-25T10:00:38.202Z,1.17
2022-09-25T10:03:07.970Z,1.30
2022-09-25T10:05:38.756Z,1.60
2022-09-25T10:08:07.189Z,1.33
2022-09-25T10:10:38.327Z,1.40
2022-09-25T10:13:10.120Z,1.38
2022-09-25T10:15:42.776Z,1.38
2022-09-25T10:18:11.337Z,1.65
2022-09-25T10:20:42.357Z,1.33
2022-09-25T10:23:19.148Z,1.27
2022-09-25T10:25:53.778Z,1.20
2022-09-25T10:28:27.538Z,1.35
2022-09-25T10:30:56.549Z,1.23
2022-09-25T10:33:26.135Z,1.20
2022-09-25T10:35:55.071Z,1.50
2022-09-25T10:38:36.133Z,1.52
2022-09-25T10:41:08.137Z,1.38
2022-09-25T10:43:36.553Z,1.40
2022-09-25T10:46:09.518Z,1.20
2022-09-25T10:48:56.326Z,1.40
2022-09-25T10:51:25.087Z,1.10
2022-09-25T10:53:54.348Z,1.52
2022-09-25T10:56:27.666Z,1.77
2022-09-25T10:58:57.166Z,1.30
2022-09-25T11:01:31.929Z,1.38
2022-09-25T11:04:00.826Z,1.45
2022-09-25T11:06:32.933Z,1.35
2022-09-25T11:09:05.726Z,1.30
2022-09-25T11:11:35.703Z,1.60
2022-09-25T11:14:05.358Z,1.40
2022-09-25T11:16:50.366Z,1.50
2022-09-25T11:19:22.393Z,1.40
2022-09-25T11:22:00.008Z,1.60
2022-09-25T11:24:32.173Z,1.33
2022-09-25T11:27:05.789Z,1.50
2022-09-25T11:29:41.108Z,1.20
2022-09-25T11:32:16.221Z,1.42
2022-09-25T11:34:53.888Z,1.52
2022-09-25T11:37:25.908Z,1.48
2022-09-25T11:40:21.985Z,1.70
2022-09-25T11:42:55.145Z,1.85
2022-09-25T11:45:26.513Z,2.08
2022-09-25T11:47:57.994Z,2.00
2022-09-25T11:50:32.344Z,1.58
2022-09-25T11:53:07.170Z,1.52
2022-09-25T11:55:45.824Z,1.90
2022-09-25T11:58:33.271Z,1.90
2022-09-25T12:01:06.780Z,1.95
2022-09-25T12:03:47.243Z,1.63
2022-09-25T12:06:30.538Z,1.73
2022-09-25T12:09:07.796Z,1.40
2022-09-25T12:11:45.720Z,1.40
2022-09-25T12:14:17.641Z,1.40
2022-09-25T12:16:50.754Z,2.33
2022-09-25T12:19:24.510Z,1.40
2022-09-25T12:21:56.537Z,1.58
2022-09-25T12:24:33.309Z,1.55
2022-09-25T12:27:05.993Z,1.20
2022-09-25T12:29:40.684Z,1.40
2022-09-25T12:32:16.341Z,1.40
2022-09-25T12:34:57.780Z,1.50
2022-09-25T12:37:29.710Z,2.00
2022-09-25T12:40:00.546Z,3.85
2022-09-25T12:42:36.767Z,3.03
2022-09-25T12:45:06.137Z,1.58
2022-09-25T12:47:40.496Z,1.30
2022-09-25T12:50:10.320Z,1.40
2022-09-25T12:52:40.673Z,1.48
2022-09-25T12:55:13.692Z,1.80
2022-09-25T12:57:45.804Z,1.30
2022-09-25T13:00:20.144Z,1.23
2022-09-25T13:02:52.607Z,1.40
2022-09-25T13:05:22.362Z,1.45
2022-09-25T13:07:53.749Z,1.33
2022-09-25T13:10:26.442Z,1.70
2022-09-25T13:12:57.178Z,1.50
2022-09-25T13:15:26.818Z,1.70
2022-09-25T13:17:57.884Z,1.50
2022-09-25T13:20:45.032Z,1.70
2022-09-25T13:23:14.936Z,1.73
2022-09-25T13:25:45.391Z,1.67
2022-09-25T13:28:20.061Z,1.60
2022-09-25T13:31:09.485Z,1.38
2022-09-25T13:33:50.598Z,1.77
2022-09-25T13:36:36.854Z,1.40
2022-09-25T13:39:24.398Z,1.60
2022-09-25T13:41:55.194Z,1.40
2022-09-25T13:44:44.991Z,1.70
2022-09-25T13:47:32.261Z,1.45
2022-09-25T13:50:09.297Z,1.40
2022-09-25T13:53:14.641Z,1.30
2022-09-25T13:55:43.162Z,1.02
2022-09-25T13:58:22.435Z,1.23
2022-09-25T14:00:55.575Z,1.20
2022-09-25T14:03:37.876Z,1.40
2022-09-25T14:06:12.490Z,1.40
2022-09-25T14:08:42.016Z,1.67
2022-09-25T14:11:11.500Z,1.10
2022-09-25T14:13:46.724Z,1.17
2022-09-25T14:16:20.561Z,1.17
2022-09-25T14:18:54.164Z,1.30
2022-09-25T14:21:26.462Z,1.08
2022-09-25T14:23:55.630Z,1.35
2022-09-25T14:26:26.118Z,1.00
2022-09-25T14:28:55.193Z,1.15
2022-09-25T14:31:31.620Z,1.10
2022-09-25T14:34:08.699Z,1.20
2022-09-25T14:36:43.629Z,1.20
2022-09-25T14:39:27.140Z,1.30
2022-09-25T14:42:10.042Z,1.20
2022-09-25T14:44:49.303Z,1.00
2022-09-25T14:47:19.164Z,1.30
2022-09-25T14:49:49.725Z,1.20
2022-09-25T14:52:24.084Z,1.35
2022-09-25T14:54:55.177Z,1.30
2022-09-25T14:57:26.984Z,1.20
2022-09-25T14:59:56.540Z,1.20
2022-09-25T15:02:25.888Z,1.50
2022-09-25T15:04:58.690Z,1.10
2022-09-25T15:07:28.992Z,1.08
2022-09-25T15:09:59.224Z,0.98
2022-09-25T15:12:29.288Z,1.20
2022-09-25T15:15:01.522Z,1.33
2022-09-25T15:17:29.846Z,1.42
2022-09-25T15:19:59.037Z,1.33
2022-09-25T15:22:31.495Z,1.40
2022-09-25T15:25:01.252Z,1.40
2022-09-25T15:27:30.214Z,1.38
2022-09-25T15:30:00.274Z,1.20
2022-09-25T15:32:29.665Z,1.33
2022-09-25T15:35:08.653Z,1.30
2022-09-25T15:37:38.766Z,1.30
2022-09-25T15:40:13.928Z,1.40
2022-09-25T15:42:45.762Z,1.40
2022-09-25T15:45:31.652Z,1.45
2022-09-25T15:48:00.952Z,1.20
2022-09-25T15:50:30.245Z,1.33
2022-09-25T15:53:01.671Z,1.42
2022-09-25T15:55:31.451Z,1.33
2022-09-25T15:58:06.287Z,1.30
2022-09-25T16:00:52.106Z,1.40
2022-09-25T16:03:40.070Z,2.00
2022-09-25T16:06:09.111Z,1.40
2022-09-25T16:08:38.922Z,1.38
2022-09-25T16:11:15.706Z,1.30
2022-09-25T16:13:46.190Z,1.70
2022-09-25T16:16:19.479Z,1.52
2022-09-25T16:18:47.938Z,1.90
2022-09-25T16:21:18.538Z,1.70
2022-09-25T16:23:56.178Z,1.92
2022-09-25T16:26:26.028Z,1.55
2022-09-25T16:29:04.313Z,1.92
2022-09-25T16:31:33.310Z,1.50
2022-09-25T16:34:01.792Z,1.70
2022-09-25T16:36:38.412Z,1.70
2022-09-25T16:39:16.729Z,1.70
2022-09-25T16:41:48.001Z,1.88
2022-09-25T16:44:17.831Z,1.95
2022-09-25T16:46:47.465Z,1.67
2022-09-25T16:49:16.669Z,1.90
2022-09-25T16:51:46.245Z,1.80
2022-09-25T16:54:17.314Z,1.88
2022-09-25T16:56:48.139Z,2.03
2022-09-25T16:59:18.565Z,1.95
2022-09-25T17:01:47.562Z,2.00
2022-09-25T17:04:16.723Z,2.03
2022-09-25T17:06:47.535Z,2.00
2022-09-25T17:09:18.189Z,1.90
2022-09-25T17:11:47.803Z,2.05
2022-09-25T17:14:22.757Z,2.10
2022-09-25T17:16:51.316Z,1.80
2022-09-25T17:19:20.241Z,2.10
2022-09-25T17:21:51.352Z,2.10
2022-09-25T17:24:22.089Z,2.30
2022-09-25T17:26:51.621Z,2.20
2022-09-25T17:29:20.086Z,2.03
2022-09-25T17:31:48.609Z,2.25
2022-09-25T17:34:18.533Z,2.08
2022-09-25T17:36:47.349Z,2.28
2022-09-25T17:39:15.758Z,2.10
2022-09-25T17:41:45.618Z,1.80
2022-09-25T17:44:16.137Z,2.30
2022-09-25T17:46:44.633Z,2.10
2022-09-25T17:49:13.417Z,2.55
2022-09-25T17:51:41.936Z,2.08
2022-09-25T17:54:12.753Z,2.50
2022-09-25T17:56:42.625Z,2.55
2022-09-25T17:59:13.633Z,2.28
2022-09-25T18:01:42.186Z,2.35
2022-09-25T18:04:16.158Z,2.20
2022-09-25T18:06:44.933Z,2.30
2022-09-25T18:09:13.438Z,2.70
2022-09-25T18:11:44.038Z,2.50
2022-09-25T18:14:14.981Z,2.33
2022-09-25T18:16:43.976Z,2.50
2022-09-25T18:19:33.173Z,2.67
2022-09-25T18:22:21.632Z,2.50
2022-09-25T18:24:52.853Z,2.85
2022-09-25T18:27:21.552Z,2.65
2022-09-25T18:29:51.452Z,2.67
2022-09-25T18:32:19.887Z,3.03
2022-09-25T18:34:48.402Z,2.78
2022-09-25T18:37:16.815Z,2.83
2022-09-25T18:39:47.956Z,2.60
2022-09-25T18:42:16.388Z,2.92
2022-09-25T18:44:44.789Z,2.70
2022-09-25T18:47:15.287Z,3.08
2022-09-25T18:49:43.732Z,3.53
2022-09-25T18:52:12.593Z,2.78
2022-09-25T18:54:42.312Z,3.00
2022-09-25T18:57:11.240Z,3.13
2022-09-25T18:59:39.764Z,3.03
2022-09-25T19:02:08.295Z,3.63
2022-09-25T19:04:39.090Z,3.75
2022-09-25T19:07:07.489Z,3.90
2022-09-25T19:09:35.953Z,4.30
2022-09-25T19:12:07.316Z,8.48
2022-09-25T19:14:35.724Z,9.02
2022-09-25T19:17:04.360Z,9.88
2022-09-25T19:19:35.007Z,10.18
2022-09-25T19:22:04.810Z,8.25
2022-09-25T19:24:37.425Z,7.40
2022-09-25T19:27:06.979Z,6.50
2022-09-25T19:29:36.529Z,5.75
2022-09-25T19:32:06.048Z,5.07
2022-09-25T19:34:34.609Z,4.47
2022-09-25T19:37:03.511Z,4.10
2022-09-25T19:39:54.177Z,3.97
2022-09-25T19:42:22.954Z,4.13
2022-09-25T19:44:52.576Z,3.90
2022-09-25T19:47:21.090Z,4.10
2022-09-25T19:49:49.511Z,4.10
2022-09-25T19:52:20.522Z,4.60
2022-09-25T19:54:50.331Z,4.97
2022-09-25T19:57:18.739Z,5.55
2022-09-25T19:59:49.273Z,6.18
2022-09-25T20:02:17.895Z,4.45
2022-09-25T20:04:48.155Z,4.72
2022-09-25T20:07:16.978Z,4.25
2022-09-25T20:09:45.397Z,4.88
2022-09-25T20:12:15.182Z,4.88
2022-09-25T20:14:43.834Z,4.38
2022-09-25T20:17:12.257Z,4.25
2022-09-25T20:19:40.654Z,3.90
2022-09-25T20:22:09.061Z,4.57
2022-09-25T20:24:37.561Z,5.00
2022-09-25T20:27:06.129Z,4.50
2022-09-25T20:29:36.171Z,4.82
2022-09-25T20:32:04.640Z,4.65
2022-09-25T20:34:33.074Z,4.28
2022-09-25T20:37:01.457Z,4.13
2022-09-25T20:39:29.864Z,3.67
2022-09-25T20:41:58.336Z,4.53
2022-09-25T20:44:26.820Z,4.10
2022-09-25T20:46:56.606Z,4.22
2022-09-25T20:49:25.014Z,4.35
2022-09-25T20:51:53.428Z,4.10
2022-09-25T20:54:25.596Z,4.30
2022-09-25T20:56:54.210Z,4.25
2022-09-25T20:59:22.695Z,4.00
2022-09-25T21:01:51.243Z,4.25
2022-09-25T21:04:21.082Z,4.30
2022-09-25T21:06:49.511Z,4.55
2022-09-25T21:09:20.757Z,4.22
2022-09-25T21:11:49.477Z,4.00
2022-09-25T21:14:19.580Z,5.07
2022-09-25T21:16:48.684Z,4.70
2022-09-25T21:19:18.208Z,4.53
2022-09-25T21:21:48.462Z,4.80
2022-09-25T21:24:17.638Z,4.20
2022-09-25T21:26:46.258Z,4.43
2022-09-25T21:29:15.749Z,4.47
2022-09-25T21:31:49.416Z,4.70
2022-09-25T21:34:18.581Z,4.75
2022-09-25T21:36:48.731Z,4.60
2022-09-25T21:39:17.475Z,4.10
2022-09-25T21:41:46.357Z,4.65
2022-09-25T21:44:15.233Z,4.20
2022-09-25T21:46:44.053Z,4.60
2022-09-25T21:49:16.484Z,4.68
2022-09-25T21:51:45.863Z,4.80
2022-09-25T21:54:16.181Z,4.53
2022-09-25T21:56:45.439Z,4.38
2022-09-25T21:59:14.320Z,5.10
2022-09-25T22:01:43.238Z,4.65
2022-09-25T22:04:13.219Z,4.60
2022-09-25T22:06:42.854Z,4.38
2022-09-25T22:09:12.425Z,4.80
2022-09-25T22:11:42.811Z,4.50
2022-09-25T22:14:15.749Z,4.40
2022-09-25T22:16:45.281Z,4.47
2022-09-25T22:19:15.360Z,4.30
2022-09-25T22:21:44.881Z,4.00
2022-09-25T22:24:13.350Z,5.18
2022-09-25T22:26:44.140Z,4.60
2022-09-25T22:29:12.786Z,4.22
2022-09-25T22:31:43.292Z,4.28
2022-09-25T22:34:16.133Z,4.15
2022-09-25T22:36:44.566Z,4.38
2022-09-25T22:39:14.597Z,4.50
2022-09-25T22:41:44.658Z,4.28
2022-09-25T22:44:13.172Z,4.30
2022-09-25T22:46:41.589Z,4.28
2022-09-25T22:49:10.002Z,4.63
2022-09-25T22:51:38.485Z,4.30
2022-09-25T22:54:07.088Z,3.97
2022-09-25T22:56:36.004Z,4.43
2022-09-25T22:59:06.569Z,5.13
2022-09-25T23:01:37.758Z,4.50
2022-09-25T23:04:08.034Z,4.72
2022-09-25T23:06:36.845Z,4.45
2022-09-25T23:09:07.505Z,5.00
2022-09-25T23:11:35.957Z,4.70
2022-09-25T23:14:06.584Z,4.97
2022-09-25T23:16:35.403Z,4.70
2022-09-25T23:19:04.033Z,4.97
2022-09-25T23:21:32.910Z,4.78
2022-09-25T23:24:02.491Z,4.05
2022-09-25T23:26:31.320Z,4.68
2022-09-25T23:29:01.653Z,4.07
2022-09-25T23:31:32.010Z,4.07
2022-09-25T23:34:00.646Z,4.00
2022-09-25T23:36:29.640Z,3.97
2022-09-25T23:39:00.136Z,3.63
2022-09-25T23:41:29.104Z,3.55
2022-09-25T23:43:57.892Z,3.53
2022-09-25T23:46:27.834Z,3.50
2022-09-25T23:48:57.929Z,3.88
2022-09-25T23:51:27.269Z,3.58
2022-09-25T23:53:56.153Z,3.85
2022-09-25T23:56:25.526Z,3.45
2022-09-25T23:58:53.938Z,3.40
